KINK

Winkler County Airport

Wink, Texas, USA
METAR KINK 201953Z AUTO 06007KT 10SM CLR 31/18 A3011 RMK AO2 SLP148 T03110183 $
Observed Flight Rules
Aug-20 @ 19:53 UTC (36 minutes ago) Visual Flight Rules
Wind Visibility Clouds
60° at 7 knots 10 miles
  • Clear skies
Temperatures Readings
Current 31°C / 88°F
Dewpoint 18°C / 64°F
Humidity 46%
Altimeter 30.11" Hg
Pressure 1014.8 hPa
Elevation 855
METAR KINK 201953Z AUTO 06007KT 10SM CLR 31/18 A3011 RMK AO2 SLP148 T03110183 $
Observed Flight Rules
Aug-20 @ 19:53 UTC
(36 minutes ago)
VFR
Wind Visibility
60° at 7 knots 10 miles
Clouds
  • Clear skies
Temperature Dewpoint
31°C / 88°F 18°C / 64°F
Humidity Altimeter Pressure
46% 30.11" Hg 1014.8 hPa